Time;durP1;ratioP1;P1;durP2;ratioP2;P2;SDS_P1;SDS_P2;PMS_P1;PMS_P2;Temp;Humidity;BMP_temperature;BMP_pressure;BME280_temperature;BME280_humidity;BME280_pressure;Samples;Min_cycle;Max_cycle;Signal;HPM_P1;HPM_P2
2022/07/05 00:01:23;;;;;;;2.83;2.50;;;;;;;11.70;100.00;101143.41;4956962;28;20049;-80
2022/07/05 00:03:49;;;;;;;3.08;2.70;;;;;;;11.66;100.00;101152.28;4956561;28;20039;-79
2022/07/05 00:06:16;;;;;;;3.90;2.90;;;;;;;11.62;100.00;101147.06;4949043;28;20058;-79
2022/07/05 00:08:43;;;;;;;4.00;2.42;;;;;;;11.53;100.00;101154.28;4953648;28;20047;-79
2022/07/05 00:11:10;;;;;;;3.42;2.70;;;;;;;11.52;100.00;101159.59;4943655;28;20046;-81
2022/07/05 00:13:36;;;;;;;3.25;2.75;;;;;;;11.50;100.00;101156.94;4955804;28;20653;-79
2022/07/05 00:16:03;;;;;;;2.95;2.55;;;;;;;11.42;100.00;101145.63;4946771;28;20050;-80
2022/07/05 00:18:30;;;;;;;3.53;3.22;;;;;;;11.45;100.00;101160.59;4969047;28;20094;-79
2022/07/05 00:20:56;;;;;;;4.05;3.08;;;;;;;11.43;100.00;101159.72;4955515;28;20051;-80
2022/07/05 00:23:23;;;;;;;3.83;3.05;;;;;;;11.43;100.00;101163.22;4968242;28;20046;-79
2022/07/05 00:25:52;;;;;;;3.47;3.17;;;;;;;11.41;100.00;101154.44;4967604;28;20039;-80
2022/07/05 00:28:19;;;;;;;4.03;3.20;;;;;;;11.33;100.00;101158.13;4948655;28;20134;-80
2022/07/05 00:30:45;;;;;;;4.43;3.03;;;;;;;11.33;100.00;101163.41;4963239;28;20034;-80
2022/07/05 00:33:12;;;;;;;3.88;2.92;;;;;;;11.29;100.00;101162.59;4950287;28;20155;-79
2022/07/05 00:35:39;;;;;;;3.60;2.88;;;;;;;11.31;100.00;101160.78;4941560;29;20039;-80
2022/07/05 00:38:05;;;;;;;4.15;3.13;;;;;;;11.24;100.00;101175.00;4951924;28;20559;-80
2022/07/05 00:40:32;;;;;;;2.88;2.63;;;;;;;11.18;100.00;101176.00;4946728;28;20493;-80
2022/07/05 00:42:59;;;;;;;3.10;2.60;;;;;;;11.16;100.00;101175.13;4955938;28;20039;-79
2022/07/05 00:45:25;;;;;;;3.42;2.72;;;;;;;11.20;100.00;101178.59;4942681;28;20514;-79
2022/07/05 00:47:52;;;;;;;3.92;2.90;;;;;;;11.16;100.00;101179.53;4951988;28;20082;-79
2022/07/05 00:50:19;;;;;;;3.10;2.58;;;;;;;11.12;100.00;101177.84;4963215;28;20039;-78
2022/07/05 00:52:46;;;;;;;3.50;3.20;;;;;;;11.09;100.00;101184.03;4968329;28;20030;-78
2022/07/05 00:55:12;;;;;;;3.40;2.88;;;;;;;11.11;100.00;101184.03;4967033;28;20043;-78
2022/07/05 00:57:39;;;;;;;3.67;3.20;;;;;;;11.07;100.00;101183.19;4954530;28;20038;-78
2022/07/05 01:00:06;;;;;;;3.60;3.10;;;;;;;11.06;100.00;101180.56;4943777;28;20420;-80
2022/07/05 01:02:33;;;;;;;3.33;2.92;;;;;;;11.06;100.00;101184.09;4963540;28;20047;-79
2022/07/05 01:05:00;;;;;;;3.55;3.22;;;;;;;11.06;100.00;101191.16;4926840;28;20118;-79
2022/07/05 01:07:27;;;;;;;4.50;3.35;;;;;;;11.00;100.00;101190.31;4954497;28;20055;-78
2022/07/05 01:09:54;;;;;;;3.85;2.78;;;;;;;11.07;100.00;101198.19;4953452;28;20504;-79
2022/07/05 01:12:22;;;;;;;3.45;3.15;;;;;;;11.00;100.00;101192.97;4953994;28;20065;-79
2022/07/05 01:14:48;;;;;;;3.30;3.00;;;;;;;10.95;100.00;101200.09;5021900;23;20042;-80
2022/07/05 01:17:15;;;;;;;3.47;2.72;;;;;;;10.96;100.00;101203.63;4942267;29;20753;-80
2022/07/05 01:19:42;;;;;;;3.40;2.70;;;;;;;10.93;100.00;101201.00;4934306;29;20110;-80
2022/07/05 01:22:17;;;;;;;3.95;2.83;;;;;;;10.92;100.00;101202.75;4933696;29;20445;-80
2022/07/05 01:24:45;;;;;;;3.92;2.90;;;;;;;10.96;100.00;101201.84;4933531;29;20048;-80
2022/07/05 01:27:12;;;;;;;3.30;2.85;;;;;;;10.94;100.00;101205.41;4934321;29;20090;-80
2022/07/05 01:29:39;;;;;;;3.08;2.80;;;;;;;10.94;100.00;101195.72;4933026;29;20045;-80
2022/07/05 01:32:06;;;;;;;3.17;2.88;;;;;;;10.95;100.00;101199.22;4922380;29;20047;-80
2022/07/05 01:34:32;;;;;;;3.35;3.05;;;;;;;10.90;100.00;101193.13;4951653;29;20043;-80
2022/07/05 01:36:59;;;;;;;3.22;2.53;;;;;;;10.88;100.00;101192.28;4916273;29;20047;-80
2022/07/05 01:39:26;;;;;;;3.38;2.70;;;;;;;10.88;100.00;101198.44;4926309;29;20485;-80
2022/07/05 01:41:53;;;;;;;3.60;2.65;;;;;;;10.86;100.00;101192.28;4940112;29;20043;-80
2022/07/05 01:44:19;;;;;;;3.38;2.88;;;;;;;10.84;100.00;101195.84;4919966;29;20051;-80
2022/07/05 01:46:51;;;;;;;3.28;2.85;;;;;;;10.78;100.00;101195.94;4934223;29;20035;-79
2022/07/05 01:49:17;;;;;;;3.90;3.33;;;;;;;10.82;100.00;101200.28;4933686;29;20050;-80
2022/07/05 01:51:58;;;;;;;3.33;3.03;;;;;;;10.78;100.00;101201.22;4932302;29;20039;-80
2022/07/05 01:54:25;;;;;;;3.38;2.90;;;;;;;10.71;100.00;101201.28;4923946;29;20050;-80
2022/07/05 01:56:51;;;;;;;3.70;2.72;;;;;;;10.74;100.00;101194.22;4907334;29;20047;-80
2022/07/05 01:59:18;;;;;;;4.05;2.83;;;;;;;10.67;100.00;101190.75;4932936;29;20040;-80
2022/07/05 02:01:45;;;;;;;2.85;2.65;;;;;;;10.63;100.00;101183.78;4916807;29;20048;-80
2022/07/05 02:04:11;;;;;;;3.60;2.80;;;;;;;10.64;100.00;101189.03;4953406;28;20090;-79
2022/07/05 02:06:38;;;;;;;3.65;3.08;;;;;;;10.60;100.00;101190.00;4933545;29;20047;-81
2022/07/05 02:09:07;;;;;;;2.88;2.58;;;;;;;10.56;100.00;101180.34;4919001;29;20058;-81
2022/07/05 02:11:34;;;;;;;4.47;3.17;;;;;;;10.54;100.00;101182.13;4925451;29;20055;-81
2022/07/05 02:14:01;;;;;;;4.10;3.20;;;;;;;10.52;100.00;101183.91;4926235;29;20047;-80
2022/07/05 02:16:28;;;;;;;3.05;2.72;;;;;;;10.49;100.00;101183.94;4949355;28;20065;-80
2022/07/05 02:18:55;;;;;;;3.40;3.03;;;;;;;10.46;100.00;101186.63;4920327;29;20074;-80
2022/07/05 02:21:22;;;;;;;3.25;2.90;;;;;;;10.42;100.00;101180.50;4922541;29;20067;-80
2022/07/05 02:23:49;;;;;;;3.30;3.00;;;;;;;10.40;100.00;101184.03;4935088;29;20464;-80
2022/07/05 02:26:16;;;;;;;3.10;2.80;;;;;;;10.38;100.00;101173.50;4929465;29;20071;-81
2022/07/05 02:28:42;;;;;;;5.35;2.83;;;;;;;10.36;100.00;101183.22;4919715;29;20046;-81
2022/07/05 02:31:12;;;;;;;3.50;3.20;;;;;;;10.41;100.00;101188.44;4931628;29;20130;-81
2022/07/05 02:33:39;;;;;;;3.50;3.08;;;;;;;10.37;100.00;101187.59;4944928;29;20036;-81
2022/07/05 02:36:11;;;;;;;3.33;2.85;;;;;;;10.35;100.00;101183.25;4937429;28;20051;-81
2022/07/05 02:38:38;;;;;;;3.28;2.97;;;;;;;10.33;100.00;101196.44;4917995;29;20134;-81
2022/07/05 02:41:09;;;;;;;4.05;2.90;;;;;;;10.33;100.00;101192.91;4916020;29;20043;-82
2022/07/05 02:43:37;;;;;;;12.38;4.38;;;;;;;10.32;100.00;101196.47;4941739;29;20047;-80
2022/07/05 02:46:05;;;;;;;3.53;3.20;;;;;;;10.28;100.00;101192.13;4920375;29;20167;-80
2022/07/05 02:48:33;;;;;;;4.47;3.22;;;;;;;10.25;100.00;101197.41;4919154;29;20043;-80
2022/07/05 02:51:00;;;;;;;3.13;2.80;;;;;;;10.22;100.00;101203.59;4918611;29;20066;-80
2022/07/05 02:53:27;;;;;;;3.33;3.03;;;;;;;10.18;100.00;101195.72;4932381;29;20041;-80
2022/07/05 02:55:54;;;;;;;3.65;2.80;;;;;;;10.14;100.00;101198.38;4915602;29;20043;-80
2022/07/05 02:58:20;;;;;;;3.92;2.85;;;;;;;10.20;100.00;101205.38;4917173;29;20052;-80
2022/07/05 03:00:48;;;;;;;4.30;2.85;;;;;;;10.16;100.00;101212.41;4951399;29;20048;-80
2022/07/05 03:03:15;;;;;;;3.40;3.03;;;;;;;10.14;100.00;101206.28;4931896;29;20063;-80
2022/07/05 03:05:42;;;;;;;3.33;3.03;;;;;;;10.13;100.00;101212.47;4931788;29;20106;-80
2022/07/05 03:08:09;;;;;;;3.35;2.92;;;;;;;10.13;100.00;101214.22;4919369;29;20044;-80
2022/07/05 03:10:36;;;;;;;3.72;3.17;;;;;;;10.14;100.00;101219.50;4915895;29;20052;-80
2022/07/05 03:13:03;;;;;;;3.80;3.50;;;;;;;10.18;100.00;101219.47;4914759;28;20048;-80
2022/07/05 03:15:30;;;;;;;3.78;3.45;;;;;;;10.18;100.00;101214.19;4931688;29;20126;-80
2022/07/05 03:17:57;;;;;;;3.60;3.30;;;;;;;10.16;100.00;101215.06;4917483;29;20055;-80
2022/07/05 03:20:24;;;;;;;3.08;2.78;;;;;;;10.13;100.00;101216.88;4913323;29;20067;-80
2022/07/05 03:22:50;;;;;;;3.70;3.33;;;;;;;10.15;100.00;101223.00;4934775;29;20124;-81
2022/07/05 03:25:17;;;;;;;4.88;3.40;;;;;;;10.17;100.00;101218.56;4932778;29;20040;-80
2022/07/05 03:27:44;;;;;;;3.85;3.00;;;;;;;10.18;100.00;101224.75;4939199;29;20046;-80
2022/07/05 03:30:11;;;;;;;5.25;3.28;;;;;;;10.20;100.00;101225.63;4917181;29;20070;-81
2022/07/05 03:32:38;;;;;;;3.47;3.10;;;;;;;10.18;100.00;101220.34;4937165;29;20473;-80
2022/07/05 03:35:05;;;;;;;4.05;3.05;;;;;;;10.19;100.00;101213.31;4930452;29;20039;-81
2022/07/05 03:37:32;;;;;;;3.58;3.10;;;;;;;10.24;100.00;101216.78;4925791;28;20043;-81
2022/07/05 03:39:59;;;;;;;3.50;3.20;;;;;;;10.26;100.00;101207.97;4928474;29;20043;-81
2022/07/05 03:42:25;;;;;;;4.22;3.47;;;;;;;10.28;100.00;101221.16;4935599;29;20074;-80
2022/07/05 03:44:52;;;;;;;4.47;3.10;;;;;;;10.30;100.00;101209.69;4921916;29;20139;-81
2022/07/05 03:47:19;;;;;;;4.93;3.67;;;;;;;10.41;100.00;101212.19;4935304;29;20083;-81
2022/07/05 03:49:46;;;;;;;3.92;3.22;;;;;;;10.49;100.00;101207.72;4936234;29;20039;-81
2022/07/05 03:52:14;;;;;;;3.50;3.17;;;;;;;10.46;100.00;101226.25;4918507;29;20127;-80
2022/07/05 03:54:40;;;;;;;3.80;3.08;;;;;;;10.44;100.00;101225.41;4919428;29;20045;-81
2022/07/05 03:57:07;;;;;;;3.33;3.03;;;;;;;10.43;100.00;101221.00;4915262;29;20074;-81
2022/07/05 03:59:34;;;;;;;3.50;3.20;;;;;;;10.47;100.00;101221.84;4927010;29;20051;-80
2022/07/05 04:02:01;;;;;;;4.90;3.28;;;;;;;10.54;100.00;101216.47;4938582;29;20135;-80
2022/07/05 04:04:31;;;;;;;4.05;3.60;;;;;;;10.66;100.00;101218.09;4899617;29;20043;-81
2022/07/05 04:06:57;;;;;;;4.00;3.60;;;;;;;10.67;100.00;101218.06;4931919;29;20409;-80
2022/07/05 04:09:24;;;;;;;5.95;3.50;;;;;;;10.69;100.00;101218.06;4941133;29;20055;-80
2022/07/05 04:11:51;;;;;;;4.85;3.70;;;;;;;10.75;100.00;101217.09;4913851;29;20051;-80
2022/07/05 04:14:18;;;;;;;3.58;3.28;;;;;;;10.74;100.00;101218.88;4914588;29;20511;-80
2022/07/05 04:16:44;;;;;;;4.95;3.50;;;;;;;10.73;100.00;101217.13;4918633;29;20458;-80
2022/07/05 04:19:11;;;;;;;4.07;3.60;;;;;;;10.76;100.00;101216.19;4907747;29;20073;-80
2022/07/05 04:21:38;;;;;;;4.45;3.22;;;;;;;10.82;100.00;101217.00;4894443;29;20042;-80
2022/07/05 04:24:05;;;;;;;3.50;3.20;;;;;;;10.82;100.00;101221.41;4941942;29;20043;-81
2022/07/05 04:26:32;;;;;;;4.20;3.63;;;;;;;10.85;100.00;101224.91;4930827;29;20044;-80
2022/07/05 04:28:59;;;;;;;3.53;3.00;;;;;;;10.85;100.00;101229.34;4908095;29;20103;-80
2022/07/05 04:31:26;;;;;;;3.00;2.70;;;;;;;10.90;100.00;101227.47;4915376;29;20124;-80
2022/07/05 04:33:52;;;;;;;3.20;2.90;;;;;;;11.02;100.00;101232.63;4922004;29;20512;-80
2022/07/05 04:36:19;;;;;;;3.10;2.80;;;;;;;11.10;100.00;101233.41;4916207;29;20039;-80
2022/07/05 04:38:46;;;;;;;3.30;3.00;;;;;;;11.13;100.00;101238.63;4929413;29;20066;-80
2022/07/05 04:41:13;;;;;;;6.22;3.53;;;;;;;11.17;100.00;101242.09;4887557;29;20409;-80
2022/07/05 04:43:39;;;;;;;3.95;2.95;;;;;;;11.24;100.00;101238.47;4935806;28;20449;-80
2022/07/05 04:46:06;;;;;;;3.33;3.00;;;;;;;11.35;100.00;101246.25;4923672;29;20051;-80
2022/07/05 04:48:32;;;;;;;4.38;2.95;;;;;;;11.45;100.00;101251.41;4929505;29;20040;-80
2022/07/05 04:50:59;;;;;;;3.58;3.28;;;;;;;11.55;100.00;101245.09;4914832;29;20047;-79
2022/07/05 04:53:26;;;;;;;5.97;4.05;;;;;;;11.66;100.00;101258.16;4928366;29;20099;-79
2022/07/05 04:55:53;;;;;;;5.90;3.85;;;;;;;11.76;100.00;101254.44;4940504;29;20043;-80
2022/07/05 04:58:19;;;;;;;7.95;4.18;;;;;;;11.96;100.00;101259.47;4930904;29;20066;-80
2022/07/05 05:00:46;;;;;;;6.60;3.45;;;;;;;12.14;100.00;101254.75;4921421;29;20129;-80
2022/07/05 05:03:13;;;;;;;7.85;3.55;;;;;;;12.45;100.00;101255.97;4901439;29;20044;-80
2022/07/05 05:05:39;;;;;;;5.60;3.40;;;;;;;12.62;100.00;101255.66;4930442;28;20470;-80
2022/07/05 05:08:06;;;;;;;3.72;3.28;;;;;;;12.73;100.00;101260.72;4926731;29;20044;-82
2022/07/05 05:10:33;;;;;;;7.10;3.38;;;;;;;12.83;100.00;101262.28;4916986;29;20040;-81
2022/07/05 05:13:00;;;;;;;4.70;3.80;;;;;;;12.90;100.00;101264.78;4922311;29;20043;-81
2022/07/05 05:15:26;;;;;;;16.13;5.00;;;;;;;13.09;100.00;101267.06;4922424;29;20036;-81
2022/07/05 05:17:53;;;;;;;12.50;3.58;;;;;;;13.35;100.00;101271.84;4915986;29;20052;-81
2022/07/05 05:20:20;;;;;;;6.88;3.38;;;;;;;13.78;100.00;101275.25;4913002;29;20520;-80
2022/07/05 05:22:46;;;;;;;12.10;4.15;;;;;;;14.19;100.00;101272.47;4933076;29;20052;-82
2022/07/05 05:25:13;;;;;;;5.03;2.65;;;;;;;14.34;100.00;101277.41;4937766;29;20387;-81
2022/07/05 05:27:48;;;;;;;3.70;2.97;;;;;;;14.52;100.00;101276.94;4940976;29;20051;-80
2022/07/05 05:30:17;;;;;;;3.38;2.75;;;;;;;14.67;100.00;101278.31;4914198;29;20048;-80
2022/07/05 05:32:44;;;;;;;6.78;2.70;;;;;;;14.89;100.00;101275.94;4917302;29;20138;-81
2022/07/05 05:35:10;;;;;;;3.00;2.70;;;;;;;14.96;100.00;101274.81;4935570;28;20040;-82
2022/07/05 05:37:47;;;;;;;2.95;2.72;;;;;;;15.17;100.00;101284.00;4934291;29;20051;-82
2022/07/05 05:40:14;;;;;;;3.17;2.65;;;;;;;15.30;100.00;101284.47;4928416;29;20489;-82
2022/07/05 05:42:41;;;;;;;2.53;2.10;;;;;;;16.20;100.00;101284.31;4907375;28;20406;-80
2022/07/05 05:45:09;;;;;;;2.05;1.85;;;;;;;17.69;96.56;101283.28;4909419;29;20134;-81
2022/07/05 05:47:43;;;;;;;2.72;2.00;;;;;;;20.08;82.47;101274.31;4928899;29;20067;-80
2022/07/05 05:50:10;;;;;;;3.92;1.80;;;;;;;21.54;69.70;101278.25;4918719;29;20046;-80
2022/07/05 05:52:37;;;;;;;3.28;2.08;;;;;;;21.66;67.28;101279.34;4937031;29;20046;-82
2022/07/05 05:55:05;;;;;;;2.47;1.90;;;;;;;22.43;62.74;101290.97;4921301;29;20489;-81
2022/07/05 05:57:33;;;;;;;2.85;1.98;;;;;;;23.11;58.96;101290.41;4932246;29;20044;-81
2022/07/05 06:00:00;;;;;;;2.20;1.75;;;;;;;24.49;53.13;101294.91;4913851;29;20801;-81
2022/07/05 06:02:27;;;;;;;2.38;1.80;;;;;;;25.15;49.24;101299.31;4916650;29;21499;-80
2022/07/05 06:04:53;;;;;;;1.60;1.40;;;;;;;26.01;46.50;101297.47;4926473;29;20107;-81
2022/07/05 06:07:20;;;;;;;2.97;1.60;;;;;;;25.87;47.85;101303.03;4936067;29;20067;-81
2022/07/05 06:09:47;;;;;;;3.92;2.10;;;;;;;25.45;47.39;101307.03;4918924;29;20051;-81
2022/07/05 06:12:14;;;;;;;3.33;1.67;;;;;;;25.45;45.95;101305.19;4899656;29;20035;-81
2022/07/05 06:14:40;;;;;;;2.25;1.50;;;;;;;24.81;46.20;101308.91;4921821;29;20537;-81
2022/07/05 06:17:07;;;;;;;2.15;1.55;;;;;;;24.20;47.24;101313.91;4896027;29;20055;-80
2022/07/05 06:19:34;;;;;;;2.47;1.77;;;;;;;23.07;49.63;101326.63;4900637;29;20044;-81
2022/07/05 06:22:01;;;;;;;3.00;1.60;;;;;;;22.57;50.94;101318.91;4900986;29;20086;-81
2022/07/05 06:24:27;;;;;;;2.95;1.60;;;;;;;22.07;52.81;101318.22;4948759;28;20039;-80
2022/07/05 06:26:54;;;;;;;1.63;1.50;;;;;;;21.87;52.58;101311.28;4932186;29;20124;-80
2022/07/05 06:29:21;;;;;;;2.53;1.70;;;;;;;21.63;54.20;101313.53;4916837;29;20043;-80
2022/07/05 06:31:47;;;;;;;4.40;1.98;;;;;;;21.58;52.75;101317.44;4919279;29;20067;-83
2022/07/05 06:34:14;;;;;;;3.60;1.70;;;;;;;21.18;55.29;101321.41;4933292;29;20146;-81
2022/07/05 06:36:41;;;;;;;1.92;1.55;;;;;;;20.90;56.62;101316.66;4931110;29;20473;-82
2022/07/05 06:39:07;;;;;;;2.30;1.58;;;;;;;20.72;56.28;101315.81;4930606;29;20420;-81
2022/07/05 06:41:34;;;;;;;3.88;1.80;;;;;;;20.83;56.20;101320.59;4914502;29;20107;-81
2022/07/05 06:44:01;;;;;;;1.80;1.45;;;;;;;20.83;58.04;101323.28;4923954;29;20152;-82
2022/07/05 06:46:48;;;;;;;2.22;1.60;;;;;;;20.91;59.42;101321.94;4942367;28;20496;-81
2022/07/05 06:49:14;;;;;;;2.22;1.70;;;;;;;20.89;57.80;101323.84;4955074;28;20051;-82
2022/07/05 06:51:41;;;;;;;3.45;1.50;;;;;;;21.34;58.59;101330.41;4918346;29;20052;-82
2022/07/05 06:54:08;;;;;;;3.67;1.73;;;;;;;21.24;55.65;101324.63;4933065;29;20043;-81
2022/07/05 06:56:56;;;;;;;2.33;1.77;;;;;;;21.47;56.11;101327.94;4938065;29;20047;-82
2022/07/05 06:59:42;;;;;;;2.30;1.58;;;;;;;21.92;55.52;101332.53;4921558;29;20059;-82
2022/07/05 07:02:26;;;;;;;3.65;1.65;;;;;;;22.02;52.03;101322.09;4926101;29;20118;-83
2022/07/05 07:04:53;;;;;;;2.67;1.70;;;;;;;22.10;53.12;101326.13;4921137;29;20496;-83
2022/07/05 07:10:23;;;;;;;3.53;2.03;;;;;;;22.48;49.64;101326.56;4947210;29;20048;-81
2022/07/05 07:12:59;;;;;;;2.65;1.65;;;;;;;22.72;50.54;101321.53;4904474;29;20075;-82
2022/07/05 07:18:07;;;;;;;2.92;1.92;;;;;;;23.89;47.87;101327.72;4960807;28;20054;-78
2022/07/05 07:20:33;;;;;;;3.15;1.52;;;;;;;23.76;45.17;101319.56;4934495;28;20049;-78
2022/07/05 07:23:00;;;;;;;2.47;1.48;;;;;;;24.07;44.80;101323.81;4967994;28;20043;-78
2022/07/05 07:25:27;;;;;;;2.70;1.73;;;;;;;23.74;45.83;101318.81;4966715;28;20041;-78
2022/07/05 07:27:55;;;;;;;3.35;1.70;;;;;;;23.95;46.98;101317.38;4941981;28;20052;-78
2022/07/05 07:30:24;;;;;;;2.38;1.40;;;;;;;24.25;44.54;101321.72;4934533;29;20415;-79
2022/07/05 07:32:51;;;;;;;2.67;1.60;;;;;;;24.42;45.58;101311.53;4938779;28;20042;-79
2022/07/05 07:35:18;;;;;;;2.70;1.60;;;;;;;24.55;45.18;101313.38;4950457;28;20039;-78
2022/07/05 07:37:45;;;;;;;2.10;1.60;;;;;;;24.96;43.10;101319.47;4938079;28;20805;-78
2022/07/05 07:40:12;;;;;;;3.10;1.45;;;;;;;25.14;41.47;101311.97;4934126;28;20050;-79
2022/07/05 07:42:39;;;;;;;3.05;1.70;;;;;;;25.12;41.81;101319.28;4978421;28;20557;-78
2022/07/05 07:45:06;;;;;;;2.97;1.80;;;;;;;25.08;43.19;101311.53;4935503;28;20044;-77
2022/07/05 07:47:34;;;;;;;2.58;1.50;;;;;;;24.70;42.27;101315.91;4944125;28;20039;-78
2022/07/05 07:50:03;;;;;;;2.20;1.70;;;;;;;24.36;42.95;101316.47;4952349;28;20446;-78
2022/07/05 07:52:37;;;;;;;2.10;1.30;;;;;;;23.63;42.10;101322.19;4967681;28;20049;-78
2022/07/05 07:55:05;;;;;;;3.22;1.60;;;;;;;23.62;44.82;101319.59;4951944;28;20511;-78
2022/07/05 07:57:32;;;;;;;2.53;1.40;;;;;;;23.54;45.23;101326.31;4936994;28;20054;-77
2022/07/05 07:59:58;;;;;;;3.78;1.70;;;;;;;24.00;44.91;101325.19;4937659;28;20055;-79
2022/07/05 08:02:25;;;;;;;5.43;1.90;;;;;;;24.49;44.30;101317.38;4957440;28;20050;-77
2022/07/05 08:04:53;;;;;;;2.85;1.70;;;;;;;24.80;42.44;101313.41;4974756;28;20053;-82
2022/07/05 08:07:20;;;;;;;1.98;1.67;;;;;;;24.63;43.21;101319.13;4954234;28;20051;-78
2022/07/05 08:09:46;;;;;;;11.38;3.08;;;;;;;24.97;42.18;101307.72;4966605;28;20093;-78
2022/07/05 08:12:13;;;;;;;2.85;1.48;;;;;;;25.34;41.32;101315.06;4938334;28;20411;-78
2022/07/05 08:14:40;;;;;;;2.55;1.52;;;;;;;25.55;39.27;101314.38;4955350;28;20058;-77
2022/07/05 08:17:08;;;;;;;3.13;1.63;;;;;;;25.74;39.79;101308.53;4945818;29;20043;-78
2022/07/05 08:22:21;;;;;;;2.20;1.48;;;;;;;25.65;39.38;101309.16;4940130;29;20054;-78
2022/07/05 08:24:47;;;;;;;1.83;1.38;;;;;;;25.87;40.24;101313.00;4958507;28;20492;-78
2022/07/05 08:27:15;;;;;;;3.25;1.73;;;;;;;25.78;39.50;101310.00;4946424;29;20048;-79
2022/07/05 08:29:42;;;;;;;2.83;1.40;;;;;;;25.26;40.45;101315.63;4938433;28;20051;-79
2022/07/05 08:32:09;;;;;;;2.88;1.75;;;;;;;24.95;41.60;101317.75;4954221;28;20093;-78
2022/07/05 08:34:36;;;;;;;2.20;1.80;;;;;;;25.00;42.80;101309.34;4920872;28;20046;-78
2022/07/05 08:37:03;;;;;;;1.67;1.55;;;;;;;24.99;42.16;101305.78;4956573;28;20047;-77
2022/07/05 08:39:30;;;;;;;2.88;1.70;;;;;;;25.01;42.37;101305.66;4952435;28;20046;-77
2022/07/05 08:41:58;;;;;;;3.45;2.33;;;;;;;25.21;42.57;101312.38;4928526;29;20047;-77
2022/07/05 08:44:27;;;;;;;3.70;1.88;;;;;;;24.97;41.26;101306.81;4937631;29;20047;-78
2022/07/05 08:46:55;;;;;;;3.55;1.80;;;;;;;25.26;42.09;101302.97;4944840;29;20039;-78
2022/07/05 08:49:24;;;;;;;3.35;1.55;;;;;;;25.54;43.13;101304.53;4937151;29;20055;-78
2022/07/05 08:51:53;;;;;;;2.72;1.50;;;;;;;25.58;40.85;101309.72;4940287;28;20760;-78
2022/07/05 08:54:21;;;;;;;3.00;1.90;;;;;;;25.59;40.51;101316.88;4965617;28;20043;-78
2022/07/05 08:56:49;;;;;;;4.07;1.90;;;;;;;25.67;41.30;101304.50;4972533;28;20039;-78
2022/07/05 08:59:35;;;;;;;2.15;1.40;;;;;;;26.08;39.54;101306.00;4959735;28;20034;-79
2022/07/05 09:02:02;;;;;;;1.73;1.52;;;;;;;26.50;39.84;101301.03;4956091;28;20592;-78
2022/07/05 09:04:32;;;;;;;2.08;1.70;;;;;;;26.85;37.73;101301.84;4940106;28;20130;-78
2022/07/05 09:07:04;;;;;;;1.92;1.60;;;;;;;26.85;38.57;101310.00;4927117;28;20046;-78
2022/07/05 09:09:32;;;;;;;2.97;1.70;;;;;;;26.92;36.57;101311.25;4942545;28;20042;-78
2022/07/05 09:11:59;;;;;;;2.08;1.58;;;;;;;26.93;37.74;101320.25;4944042;28;20047;-79
2022/07/05 09:14:45;;;;;;;29.10;4.45;;;;;;;26.74;36.64;101304.56;4933473;29;20050;-78
2022/07/05 09:17:13;;;;;;;2.22;1.50;;;;;;;26.41;38.10;101301.75;4925344;29;20425;-79
2022/07/05 09:19:39;;;;;;;3.08;1.70;;;;;;;26.38;38.18;101309.09;4956459;29;20110;-79
2022/07/05 09:22:08;;;;;;;4.32;1.90;;;;;;;26.17;37.54;101302.59;4934154;29;20420;-80
2022/07/05 09:24:44;;;;;;;2.28;1.55;;;;;;;25.48;38.75;101296.88;4947386;28;20069;-78
2022/07/05 09:27:11;;;;;;;2.67;1.77;;;;;;;25.36;39.37;101303.16;4947523;28;20043;-78
2022/07/05 09:29:38;;;;;;;2.20;1.80;;;;;;;25.65;40.40;101301.06;4973317;28;20050;-79
2022/07/05 09:32:24;;;;;;;2.47;1.80;;;;;;;26.35;38.46;101290.34;4955672;28;20523;-78
2022/07/05 09:34:51;;;;;;;2.42;2.05;;;;;;;26.71;38.23;101296.66;4951144;28;20055;-78
2022/07/05 09:37:17;;;;;;;4.60;1.92;;;;;;;26.12;38.25;101293.94;4957006;28;20039;-78
2022/07/05 09:39:44;;;;;;;6.30;2.45;;;;;;;25.88;39.11;101288.53;4954581;28;20051;-79
2022/07/05 09:42:23;;;;;;;1.98;1.63;;;;;;;25.66;40.59;101280.25;4957264;28;20050;-78
2022/07/05 09:44:53;;;;;;;2.00;1.80;;;;;;;25.39;39.25;101296.66;4937384;28;20455;-78
2022/07/05 09:47:21;;;;;;;2.85;1.77;;;;;;;25.37;38.74;101288.66;4954589;28;20074;-78
2022/07/05 09:49:50;;;;;;;2.83;2.00;;;;;;;25.25;38.08;101294.97;4940110;28;20110;-78
2022/07/05 09:52:39;;;;;;;2.60;2.00;;;;;;;25.63;39.17;101284.03;4973518;28;20417;-79
2022/07/05 09:55:09;;;;;;;2.53;1.90;;;;;;;26.17;38.95;101280.94;4952860;28;20404;-79
2022/07/05 09:57:40;;;;;;;2.13;1.50;;;;;;;26.41;38.98;101283.66;4967489;28;20094;-77
2022/07/05 10:00:14;;;;;;;19.80;4.53;;;;;;;27.30;37.22;101269.34;4951778;28;20063;-78
2022/07/05 10:02:42;;;;;;;3.30;2.03;;;;;;;27.84;36.00;101279.44;4941352;28;20117;-78
2022/07/05 10:05:12;;;;;;;3.17;1.75;;;;;;;27.76;35.04;101284.63;4975594;28;20480;-78
2022/07/05 10:07:41;;;;;;;2.13;1.65;;;;;;;28.21;35.31;101276.31;4983531;28;20124;-78
2022/07/05 10:10:08;;;;;;;1.70;1.60;;;;;;;27.96;33.92;101283.81;4955021;28;20035;-78
2022/07/05 10:12:36;;;;;;;15.73;3.25;;;;;;;27.01;34.68;101281.66;4938556;28;20138;-79
2022/07/05 10:15:03;;;;;;;217.35;30.98;;;;;;;26.37;35.56;101301.06;4949964;28;20070;-78
2022/07/05 10:17:35;;;;;;;4.40;2.20;;;;;;;25.98;37.41;101300.44;4942361;28;20051;-79
2022/07/05 10:20:05;;;;;;;3.10;1.75;;;;;;;25.84;38.08;101297.00;4951642;29;20130;-78
2022/07/05 10:22:32;;;;;;;3.53;1.90;;;;;;;25.81;37.18;101298.09;4938483;28;20050;-78
2022/07/05 10:25:00;;;;;;;2.53;1.92;;;;;;;25.20;38.33;101299.81;4951215;29;20043;-79
2022/07/05 10:27:27;;;;;;;3.85;1.83;;;;;;;25.60;39.61;101302.34;4936218;28;20078;-78
2022/07/05 10:29:56;;;;;;;3.58;1.70;;;;;;;25.17;38.41;101295.50;4957291;28;20614;-79
2022/07/05 10:32:23;;;;;;;4.38;1.70;;;;;;;25.28;38.61;101302.84;4957434;28;20053;-78
2022/07/05 10:34:51;;;;;;;2.00;1.50;;;;;;;25.32;39.03;101292.69;4954563;28;20138;-79
2022/07/05 10:37:25;;;;;;;2.05;1.60;;;;;;;26.11;38.74;101300.34;4924169;28;20042;-77
2022/07/05 10:39:52;;;;;;;3.10;1.70;;;;;;;26.83;36.88;101289.41;4955713;28;20102;-76
2022/07/05 10:42:18;;;;;;;2.42;1.73;;;;;;;26.87;35.13;101286.31;4925393;28;20511;-78
2022/07/05 10:44:45;;;;;;;2.15;1.63;;;;;;;25.96;37.84;101290.66;4951626;28;20053;-78
2022/07/05 10:47:12;;;;;;;2.70;1.55;;;;;;;25.16;38.02;101301.91;4956077;28;20043;-78
2022/07/05 10:49:40;;;;;;;5.85;1.95;;;;;;;24.71;39.06;101292.44;4955290;28;20143;-77
2022/07/05 10:52:25;;;;;;;2.47;1.42;;;;;;;24.47;40.47;101291.44;4963967;28;20660;-78
2022/07/05 10:55:16;;;;;;;2.00;1.42;;;;;;;24.22;40.39;101285.00;4964785;28;20490;-78
2022/07/05 10:57:43;;;;;;;1.85;1.70;;;;;;;23.97;40.37;101288.47;4968013;28;20038;-78
2022/07/05 11:00:11;;;;;;;1.60;1.50;;;;;;;23.91;40.23;101299.66;4937658;29;20047;-77
2022/07/05 11:02:38;;;;;;;2.55;1.67;;;;;;;23.54;40.65;101302.06;4936462;28;20035;-78
2022/07/05 11:05:05;;;;;;;2.08;1.52;;;;;;;23.34;41.45;101298.88;4944387;28;20047;-79
2022/07/05 11:07:56;;;;;;;3.20;1.60;;;;;;;23.89;41.58;101303.44;4946772;28;20038;-79
2022/07/05 11:10:23;;;;;;;8.63;2.35;;;;;;;24.15;40.81;101286.38;4960027;28;20050;-80
2022/07/05 11:12:52;;;;;;;1.65;1.30;;;;;;;24.38;39.62;101284.81;4938263;29;20058;-78
2022/07/05 11:15:19;;;;;;;1.85;1.48;;;;;;;24.50;39.74;101289.41;4936714;28;20043;-78
2022/07/05 11:17:49;;;;;;;2.17;1.52;;;;;;;24.51;39.64;101283.03;4940704;28;20401;-79
2022/07/05 11:20:33;;;;;;;2.55;1.40;;;;;;;25.03;38.36;101281.25;4936140;28;20098;-77
2022/07/05 11:23:08;;;;;;;1.60;1.50;;;;;;;24.87;38.05;101284.13;4954915;28;20047;-78
2022/07/05 11:25:39;;;;;;;2.35;1.50;;;;;;;25.42;37.92;101289.19;4965427;28;20049;-79
2022/07/05 11:28:08;;;;;;;2.92;1.45;;;;;;;25.48;35.62;101277.06;4934184;29;20170;-77
2022/07/05 11:30:55;;;;;;;3.58;1.55;;;;;;;25.24;36.13;101287.84;4920434;28;20043;-78
2022/07/05 11:33:29;;;;;;;2.42;1.60;;;;;;;24.85;36.69;101272.56;4932980;28;20050;-78
2022/07/05 11:35:57;;;;;;;2.45;1.30;;;;;;;24.68;37.82;101277.31;4960245;28;20039;-77